createdAt,value
2022-12-16T00:00:08.502Z,109.70
2022-12-16T00:02:35.347Z,113.10
2022-12-16T00:05:02.071Z,105.55
2022-12-16T00:07:28.925Z,109.63
2022-12-16T00:09:55.529Z,109.18
2022-12-16T00:12:22.151Z,109.10
2022-12-16T00:14:48.763Z,104.95
2022-12-16T00:17:15.407Z,107.60
2022-12-16T00:19:42.080Z,103.70
2022-12-16T00:22:08.699Z,108.25
2022-12-16T00:24:35.418Z,104.45
2022-12-16T00:27:02.121Z,101.85
2022-12-16T00:29:28.727Z,106.20
2022-12-16T00:31:55.490Z,110.05
2022-12-16T00:34:22.350Z,104.95
2022-12-16T00:36:48.999Z,101.95
2022-12-16T00:39:15.652Z,108.38
2022-12-16T00:41:42.399Z,109.65
2022-12-16T00:44:09.477Z,108.13
2022-12-16T00:46:36.205Z,109.80
2022-12-16T00:49:03.034Z,103.68
2022-12-16T00:51:29.709Z,102.82
2022-12-16T00:53:56.344Z,108.28
2022-12-16T00:56:23.008Z,102.68
2022-12-16T00:58:50.426Z,103.82
2022-12-16T01:01:17.399Z,106.85
2022-12-16T01:03:44.225Z,105.30
2022-12-16T01:06:14.111Z,107.95
2022-12-16T01:08:40.991Z,106.07
2022-12-16T01:11:10.235Z,104.40
2022-12-16T01:13:37.053Z,111.43
2022-12-16T01:16:03.949Z,104.43
2022-12-16T01:18:31.538Z,106.47
2022-12-16T01:21:08.591Z,108.03
2022-12-16T01:23:35.908Z,105.75
2022-12-16T01:26:03.724Z,105.30
2022-12-16T01:28:30.635Z,105.88
2022-12-16T01:31:04.262Z,103.38
2022-12-16T01:33:32.987Z,106.50
2022-12-16T01:36:05.895Z,112.88
2022-12-16T01:38:33.176Z,103.90
2022-12-16T01:41:00.559Z,102.53
2022-12-16T01:43:36.631Z,110.18
2022-12-16T01:46:10.197Z,109.32
2022-12-16T01:48:54.464Z,107.57
2022-12-16T01:51:38.015Z,102.93
2022-12-16T01:54:17.180Z,101.80
2022-12-16T01:56:55.785Z,106.00
2022-12-16T01:59:24.686Z,101.30
2022-12-16T02:01:52.011Z,112.22
2022-12-16T02:04:19.023Z,103.45
2022-12-16T02:06:45.909Z,102.75
2022-12-16T02:09:15.420Z,105.50
2022-12-16T02:12:19.603Z,101.50
2022-12-16T02:15:24.626Z,104.30
2022-12-16T02:18:04.345Z,100.50
2022-12-16T02:20:49.521Z,107.25
2022-12-16T02:23:35.263Z,106.03
2022-12-16T02:26:29.915Z,104.60
2022-12-16T02:29:24.224Z,100.28
2022-12-16T02:32:03.092Z,101.82
2022-12-16T02:34:45.930Z,101.30
2022-12-16T02:37:32.605Z,102.97
2022-12-16T02:40:02.695Z,100.20
2022-12-16T02:42:39.168Z,101.38
2022-12-16T02:45:23.129Z,100.50
2022-12-16T02:47:49.747Z,98.50
2022-12-16T02:50:19.421Z,104.88
2022-12-16T02:52:46.243Z,98.63
2022-12-16T02:55:13.285Z,106.03
2022-12-16T02:58:21.005Z,105.80
2022-12-16T03:01:10.105Z,104.95
2022-12-16T03:03:45.415Z,103.25
2022-12-16T03:06:15.121Z,104.22
2022-12-16T03:08:46.057Z,101.53
2022-12-16T03:11:13.074Z,102.93
2022-12-16T03:13:46.424Z,103.32
2022-12-16T03:16:16.255Z,102.97
2022-12-16T03:18:47.630Z,104.07
2022-12-16T03:21:15.965Z,99.63
2022-12-16T03:23:57.387Z,105.32
2022-12-16T03:26:46.920Z,105.75
2022-12-16T03:29:34.718Z,97.00
2022-12-16T03:32:07.653Z,101.70
2022-12-16T03:34:54.445Z,101.72
2022-12-16T03:37:25.301Z,102.07
2022-12-16T03:39:54.915Z,106.50
2022-12-16T03:42:21.967Z,97.07
2022-12-16T03:44:50.340Z,103.32
2022-12-16T03:47:23.060Z,100.57
2022-12-16T03:49:50.580Z,103.78
2022-12-16T03:52:17.255Z,100.68
2022-12-16T03:54:43.895Z,105.45
2022-12-16T03:57:15.233Z,105.40
2022-12-16T03:59:42.839Z,103.90
2022-12-16T04:02:09.757Z,104.05
2022-12-16T04:04:36.543Z,100.50
2022-12-16T04:07:21.134Z,99.40
2022-12-16T04:09:52.034Z,98.00
2022-12-16T04:12:38.137Z,99.40
2022-12-16T04:15:38.237Z,106.03
2022-12-16T04:18:24.316Z,100.45
2022-12-16T04:21:13.212Z,102.95
2022-12-16T04:24:14.166Z,101.18
2022-12-16T04:26:59.584Z,98.18
2022-12-16T04:29:26.276Z,98.20
2022-12-16T04:31:53.192Z,108.43
2022-12-16T04:34:29.035Z,99.70
2022-12-16T04:37:16.947Z,100.82
2022-12-16T04:40:02.336Z,99.90
2022-12-16T04:42:47.882Z,103.75
2022-12-16T04:45:33.401Z,101.68
2022-12-16T04:48:18.769Z,100.90
2022-12-16T04:51:04.454Z,98.50
2022-12-16T04:53:50.010Z,99.15
2022-12-16T04:56:35.230Z,100.80
2022-12-16T04:59:20.816Z,107.82
2022-12-16T05:02:06.336Z,97.38
2022-12-16T05:04:51.817Z,99.07
2022-12-16T05:07:38.688Z,96.13
2022-12-16T05:10:24.728Z,100.88
2022-12-16T05:13:12.180Z,103.03
2022-12-16T05:15:58.178Z,100.25
2022-12-16T05:18:43.587Z,101.53
2022-12-16T05:21:29.035Z,100.93
2022-12-16T05:24:14.296Z,99.60
2022-12-16T05:26:59.701Z,100.00
2022-12-16T05:29:45.273Z,102.75
2022-12-16T05:32:30.681Z,98.25
2022-12-16T05:35:16.012Z,101.82
2022-12-16T05:38:01.259Z,100.00
2022-12-16T05:40:46.736Z,103.55
2022-12-16T05:43:32.575Z,98.18
2022-12-16T05:46:18.392Z,105.65
2022-12-16T05:49:03.787Z,111.93
2022-12-16T05:51:49.083Z,100.25
2022-12-16T05:54:34.441Z,102.88
2022-12-16T05:57:19.842Z,97.22
2022-12-16T06:00:05.274Z,101.35
2022-12-16T06:02:50.906Z,104.30
2022-12-16T06:05:36.194Z,99.45
2022-12-16T06:08:21.589Z,100.60
2022-12-16T06:11:07.023Z,98.50
2022-12-16T06:13:52.398Z,98.35
2022-12-16T06:16:37.935Z,95.40
2022-12-16T06:19:23.297Z,101.30
2022-12-16T06:22:08.699Z,100.85
2022-12-16T06:24:54.023Z,101.72
2022-12-16T06:27:39.482Z,100.50
2022-12-16T06:30:25.587Z,100.75
2022-12-16T06:33:10.788Z,99.72
2022-12-16T06:35:56.339Z,98.63
2022-12-16T06:38:41.573Z,98.57
2022-12-16T06:41:28.481Z,103.13
2022-12-16T06:44:13.844Z,101.47
2022-12-16T06:46:59.295Z,98.38
2022-12-16T06:49:44.829Z,99.30
2022-12-16T06:52:30.251Z,101.40
2022-12-16T06:55:15.705Z,98.97
2022-12-16T06:58:01.881Z,98.63
2022-12-16T07:00:48.461Z,107.20
2022-12-16T07:03:35.920Z,98.43
2022-12-16T07:06:21.377Z,98.63
2022-12-16T07:09:06.736Z,97.22
2022-12-16T07:11:52.073Z,99.63
2022-12-16T07:14:37.377Z,97.80
2022-12-16T07:17:22.772Z,100.45
2022-12-16T07:20:08.149Z,97.72
2022-12-16T07:23:02.242Z,97.70
2022-12-16T07:25:49.386Z,103.35
2022-12-16T07:28:34.851Z,99.95
2022-12-16T07:31:20.465Z,95.80
2022-12-16T07:34:05.994Z,100.95
2022-12-16T07:36:51.426Z,97.03
2022-12-16T07:39:36.822Z,97.60
2022-12-16T07:42:22.381Z,103.65
2022-12-16T07:45:07.862Z,96.03
2022-12-16T07:47:53.381Z,101.55
2022-12-16T07:50:40.682Z,100.15
2022-12-16T07:53:31.236Z,103.40
2022-12-16T07:56:17.063Z,97.88
2022-12-16T07:59:02.396Z,97.30
2022-12-16T08:01:47.921Z,101.53
2022-12-16T08:04:33.199Z,96.45
2022-12-16T08:07:18.635Z,97.03
2022-12-16T08:10:03.942Z,98.25
2022-12-16T08:12:49.468Z,101.07
2022-12-16T08:15:34.716Z,97.07
2022-12-16T08:18:20.336Z,98.45
2022-12-16T08:21:05.727Z,101.00
2022-12-16T08:23:51.532Z,100.60
2022-12-16T08:26:36.768Z,96.18
2022-12-16T08:32:27.249Z,99.65
2022-12-16T08:35:12.725Z,100.38
2022-12-16T08:37:58.032Z,99.40
2022-12-16T08:40:43.421Z,100.45
2022-12-16T08:43:28.722Z,100.20
2022-12-16T08:46:15.021Z,101.38
2022-12-16T08:49:00.441Z,98.40
2022-12-16T08:51:45.970Z,98.00
2022-12-16T08:54:31.533Z,102.97
2022-12-16T08:57:17.128Z,100.72
2022-12-16T09:00:02.626Z,97.22
2022-12-16T09:02:55.810Z,102.07
2022-12-16T09:05:41.520Z,104.55
2022-12-16T09:08:26.769Z,99.55
2022-12-16T09:11:12.161Z,102.57
2022-12-16T09:13:57.512Z,99.20
2022-12-16T09:16:43.012Z,103.93
2022-12-16T09:19:29.127Z,103.47
2022-12-16T09:22:14.472Z,101.30
2022-12-16T09:24:59.861Z,104.93
2022-12-16T09:27:45.006Z,106.50
2022-12-16T09:30:30.569Z,104.88
2022-12-16T09:33:16.066Z,104.10
2022-12-16T09:36:01.488Z,105.90
2022-12-16T09:38:46.941Z,105.40
2022-12-16T09:41:57.120Z,106.30
2022-12-16T09:44:54.295Z,104.65
2022-12-16T09:48:08.807Z,106.72
2022-12-16T09:50:57.316Z,104.13
2022-12-16T09:53:43.799Z,108.18
2022-12-16T09:56:46.989Z,104.65
2022-12-16T09:59:35.615Z,104.15
2022-12-16T10:02:21.061Z,104.13
2022-12-16T10:05:10.388Z,101.65
2022-12-16T10:08:14.315Z,105.50
2022-12-16T10:11:13.193Z,102.88
2022-12-16T10:14:14.500Z,100.32
2022-12-16T10:17:25.515Z,102.88
2022-12-16T10:20:31.141Z,105.85
2022-12-16T10:23:37.792Z,102.32
2022-12-16T10:27:09.883Z,99.80
2022-12-16T10:30:00.411Z,96.82
2022-12-16T10:32:56.198Z,96.50
2022-12-16T10:35:46.178Z,94.65
2022-12-16T10:38:47.178Z,97.50
2022-12-16T10:41:32.706Z,93.35
2022-12-16T10:44:23.476Z,93.13
2022-12-16T10:47:08.869Z,94.28
2022-12-16T10:49:54.733Z,92.82
2022-12-16T10:52:40.626Z,91.85
2022-12-16T10:55:57.988Z,93.35
2022-12-16T10:59:05.118Z,92.30
2022-12-16T11:01:50.662Z,91.05
2022-12-16T11:05:05.606Z,92.43
2022-12-16T11:07:53.588Z,90.97
2022-12-16T11:10:51.194Z,91.70
2022-12-16T11:13:48.551Z,89.97
2022-12-16T11:16:42.407Z,92.65
2022-12-16T11:19:43.013Z,92.15
2022-12-16T11:22:36.868Z,90.93
2022-12-16T11:25:34.318Z,91.03
2022-12-16T11:28:33.126Z,89.97
2022-12-16T11:31:25.609Z,91.70
2022-12-16T11:34:12.917Z,90.25
2022-12-16T11:37:00.483Z,90.07
2022-12-16T11:39:48.912Z,87.35
2022-12-16T11:42:47.525Z,86.88
2022-12-16T11:45:36.485Z,88.05
2022-12-16T11:48:50.694Z,89.00
2022-12-16T11:51:39.602Z,88.00
2022-12-16T11:54:35.490Z,88.63
2022-12-16T11:57:29.063Z,89.60
2022-12-16T12:00:20.624Z,89.13
2022-12-16T12:03:08.661Z,90.07
2022-12-16T12:06:00.028Z,90.40
2022-12-16T12:08:57.694Z,90.97
2022-12-16T12:11:50.208Z,90.80
2022-12-16T12:14:59.381Z,89.72
2022-12-16T12:17:58.634Z,89.68
2022-12-16T12:21:01.814Z,93.43
2022-12-16T12:23:58.971Z,89.85
2022-12-16T12:26:50.425Z,91.63
2022-12-16T12:29:52.205Z,91.45
2022-12-16T12:33:15.726Z,91.43
2022-12-16T12:36:20.516Z,92.63
2022-12-16T12:39:33.401Z,91.43
2022-12-16T12:42:25.022Z,90.75
2022-12-16T12:45:28.663Z,94.50
2022-12-16T12:48:34.178Z,92.78
2022-12-16T12:51:32.565Z,90.00
2022-12-16T12:54:46.480Z,91.68
2022-12-16T12:57:34.241Z,91.00
2022-12-16T13:00:24.760Z,90.68
2022-12-16T13:03:33.395Z,92.32
2022-12-16T13:06:20.312Z,91.15
2022-12-16T13:09:16.258Z,90.55
2022-12-16T13:12:24.767Z,96.22
2022-12-16T13:15:11.455Z,93.43
2022-12-16T13:18:38.289Z,92.22
2022-12-16T13:21:44.023Z,92.45
2022-12-16T13:24:59.023Z,90.38
2022-12-16T13:27:46.488Z,93.07
2022-12-16T13:30:34.871Z,91.70
2022-12-16T13:33:24.916Z,90.88
2022-12-16T13:36:13.492Z,93.18
2022-12-16T13:39:10.026Z,90.32
2022-12-16T13:41:55.357Z,91.22
2022-12-16T13:45:02.363Z,92.85
2022-12-16T13:47:52.109Z,92.22
2022-12-16T13:50:58.012Z,92.60
2022-12-16T13:54:02.613Z,91.45
2022-12-16T13:56:59.490Z,94.10
2022-12-16T13:59:49.502Z,95.25
2022-12-16T14:02:39.255Z,92.90
2022-12-16T14:05:40.957Z,96.70
2022-12-16T14:08:34.429Z,96.95
2022-12-16T14:11:22.555Z,96.18
2022-12-16T14:14:22.478Z,95.57
2022-12-16T14:17:21.606Z,97.68
2022-12-16T14:20:25.696Z,99.20
2022-12-16T14:23:54.922Z,99.32
2022-12-16T14:26:32.602Z,97.38
2022-12-16T14:29:20.123Z,98.38
2022-12-16T14:32:05.437Z,99.68
2022-12-16T14:34:55.612Z,97.88
2022-12-16T14:37:51.299Z,100.38
2022-12-16T14:40:47.831Z,102.30
2022-12-16T14:43:41.754Z,97.95
2022-12-16T14:47:07.721Z,98.20
2022-12-16T14:49:52.936Z,99.60
2022-12-16T14:52:43.959Z,101.88
2022-12-16T14:55:35.319Z,99.40
2022-12-16T14:58:41.725Z,106.90
2022-12-16T15:01:40.096Z,108.32
2022-12-16T15:04:51.294Z,97.90
2022-12-16T15:07:37.736Z,98.50
2022-12-16T15:10:43.419Z,97.72
2022-12-16T15:13:37.084Z,100.38
2022-12-16T15:16:24.564Z,96.10
2022-12-16T15:19:18.204Z,98.38
2022-12-16T15:22:03.834Z,100.28
2022-12-16T15:24:55.851Z,100.38
2022-12-16T15:27:42.091Z,97.82
2022-12-16T15:30:58.456Z,103.57
2022-12-16T15:34:04.161Z,99.32
2022-12-16T15:36:55.311Z,99.25
2022-12-16T15:39:51.205Z,98.65
2022-12-16T15:42:48.269Z,100.82
2022-12-16T15:45:38.920Z,99.22
2022-12-16T15:48:49.651Z,100.90
2022-12-16T15:51:40.729Z,101.30
2022-12-16T15:54:42.422Z,103.10
2022-12-16T15:57:46.387Z,97.97
2022-12-16T16:00:49.711Z,102.90
2022-12-16T16:03:46.774Z,105.03
2022-12-16T16:06:39.728Z,100.40
2022-12-16T16:09:33.374Z,102.88
2022-12-16T16:12:18.787Z,99.97
2022-12-16T16:15:04.317Z,98.43
2022-12-16T16:17:49.657Z,99.60
2022-12-16T16:20:36.616Z,101.13
2022-12-16T16:23:22.217Z,99.75
2022-12-16T16:26:07.973Z,101.18
2022-12-16T16:28:53.274Z,104.13
2022-12-16T16:31:38.791Z,104.50
2022-12-16T16:34:23.965Z,101.40
2022-12-16T16:37:13.542Z,99.70
2022-12-16T16:39:59.505Z,98.40
2022-12-16T16:42:44.870Z,100.10
2022-12-16T16:45:31.351Z,101.50
2022-12-16T16:48:32.151Z,101.28
2022-12-16T16:51:18.793Z,109.32
2022-12-16T16:54:04.301Z,107.07
2022-12-16T16:56:52.073Z,104.32
2022-12-16T16:59:40.029Z,108.10
2022-12-16T17:02:43.906Z,105.10
2022-12-16T17:05:30.798Z,103.30
2022-12-16T17:08:16.224Z,104.60
2022-12-16T17:11:01.809Z,103.82
2022-12-16T17:13:47.350Z,103.07
2022-12-16T17:16:33.350Z,100.15
2022-12-16T17:19:18.450Z,101.30
2022-12-16T17:22:03.716Z,102.05
2022-12-16T17:24:53.769Z,101.50
2022-12-16T17:27:42.261Z,101.80
2022-12-16T17:30:47.617Z,103.15
2022-12-16T17:33:34.406Z,106.82
2022-12-16T17:36:20.053Z,104.45
2022-12-16T17:39:05.527Z,101.63
2022-12-16T17:41:52.150Z,102.75
2022-12-16T17:44:37.505Z,102.68
2022-12-16T17:47:23.365Z,101.38
2022-12-16T17:50:08.860Z,103.72
2022-12-16T17:52:54.130Z,101.70
2022-12-16T17:55:39.589Z,109.55
2022-12-16T17:58:25.158Z,99.63
2022-12-16T18:01:10.473Z,99.32
2022-12-16T18:03:56.070Z,101.88
2022-12-16T18:06:41.219Z,102.63
2022-12-16T18:09:26.631Z,107.22
2022-12-16T18:12:12.101Z,103.63
2022-12-16T18:14:57.515Z,100.63
2022-12-16T18:17:43.144Z,104.35
2022-12-16T18:20:28.526Z,102.40
2022-12-16T18:23:14.051Z,99.95
2022-12-16T18:25:59.581Z,101.93
2022-12-16T18:28:45.432Z,98.32
2022-12-16T18:31:30.990Z,107.15
2022-12-16T18:34:16.605Z,103.68
2022-12-16T18:37:02.150Z,101.78
2022-12-16T18:39:47.566Z,99.35
2022-12-16T18:42:32.924Z,106.63
2022-12-16T18:45:18.433Z,102.38
2022-12-16T18:48:03.733Z,109.97
2022-12-16T18:50:49.253Z,107.50
2022-12-16T18:53:34.880Z,105.32
2022-12-16T18:56:22.163Z,106.40
2022-12-16T18:59:07.604Z,114.50
2022-12-16T19:01:53.216Z,118.82
2022-12-16T19:04:38.430Z,114.07
2022-12-16T19:07:23.910Z,112.10
2022-12-16T19:10:09.237Z,109.00
2022-12-16T19:12:54.684Z,109.22
2022-12-16T19:15:47.621Z,103.72
2022-12-16T19:18:33.497Z,106.90
2022-12-16T19:21:18.870Z,110.03
2022-12-16T19:24:06.501Z,106.68
2022-12-16T19:26:51.734Z,101.70
2022-12-16T19:29:37.133Z,107.80
2022-12-16T19:32:22.590Z,106.95
2022-12-16T19:35:08.650Z,105.20
2022-12-16T19:37:54.022Z,101.13
2022-12-16T19:40:39.422Z,104.15
2022-12-16T19:43:24.927Z,106.30
2022-12-16T19:46:12.532Z,102.03
2022-12-16T19:48:58.075Z,104.05
2022-12-16T19:51:43.407Z,107.50
2022-12-16T19:54:28.844Z,100.60
2022-12-16T19:57:14.327Z,102.07
2022-12-16T19:59:59.736Z,104.78
2022-12-16T20:02:45.357Z,101.47
2022-12-16T20:05:30.748Z,98.35
2022-12-16T20:08:16.042Z,104.93
2022-12-16T20:11:01.450Z,99.05
2022-12-16T20:13:46.749Z,101.85
2022-12-16T20:16:32.130Z,102.68
2022-12-16T20:19:17.661Z,99.93
2022-12-16T20:22:06.867Z,101.63
2022-12-16T20:27:59.294Z,104.72
2022-12-16T20:30:44.812Z,102.88
2022-12-16T20:33:34.239Z,103.10
2022-12-16T20:36:21.804Z,105.70
2022-12-16T20:39:07.254Z,103.13
2022-12-16T20:41:56.034Z,105.80
2022-12-16T20:44:41.638Z,99.90
2022-12-16T20:47:26.917Z,108.72
2022-12-16T20:50:12.295Z,101.95
2022-12-16T20:52:57.983Z,103.90
2022-12-16T20:55:43.230Z,103.30
2022-12-16T20:58:28.586Z,106.07
2022-12-16T21:01:15.294Z,110.82
2022-12-16T21:04:00.612Z,103.47
2022-12-16T21:06:46.268Z,103.32
2022-12-16T21:09:31.491Z,101.82
2022-12-16T21:12:16.634Z,102.38
2022-12-16T21:14:42.385Z,100.88
2022-12-16T21:15:02.020Z,104.90
2022-12-16T21:17:47.310Z,105.85
2022-12-16T21:20:32.699Z,109.70
2022-12-16T21:23:23.741Z,104.20
2022-12-16T21:26:08.984Z,99.68
2022-12-16T21:28:56.194Z,101.65
2022-12-16T21:31:41.663Z,105.90
2022-12-16T21:34:27.156Z,105.38
2022-12-16T21:37:12.693Z,102.30
2022-12-16T21:39:57.975Z,105.85
2022-12-16T21:42:44.287Z,103.50
2022-12-16T21:45:30.364Z,108.35
2022-12-16T21:48:15.773Z,104.32
2022-12-16T21:51:01.243Z,107.82
2022-12-16T21:53:47.237Z,101.43
2022-12-16T21:56:32.847Z,101.15
2022-12-16T21:59:18.269Z,104.28
2022-12-16T22:02:04.760Z,104.95
2022-12-16T22:04:50.051Z,104.78
2022-12-16T22:07:35.519Z,105.53
2022-12-16T22:10:21.109Z,100.78
2022-12-16T22:13:06.450Z,102.63
2022-12-16T22:15:51.760Z,106.30
2022-12-16T22:18:37.741Z,100.70
2022-12-16T22:21:24.752Z,106.13
2022-12-16T22:24:10.196Z,99.07
2022-12-16T22:26:56.619Z,102.65
2022-12-16T22:29:41.931Z,113.05
2022-12-16T22:32:27.524Z,103.95
2022-12-16T22:35:13.054Z,104.47
2022-12-16T22:37:58.411Z,101.55
2022-12-16T22:40:43.789Z,101.30
2022-12-16T22:43:29.204Z,103.30
2022-12-16T22:46:18.643Z,98.60
2022-12-16T22:49:05.320Z,99.55
2022-12-16T22:51:51.297Z,104.68
2022-12-16T22:54:38.775Z,101.40
2022-12-16T22:57:24.227Z,106.28
2022-12-16T23:00:09.586Z,101.35
2022-12-16T23:02:55.046Z,100.72
2022-12-16T23:05:40.608Z,101.13
2022-12-16T23:08:25.969Z,102.65
2022-12-16T23:11:14.976Z,103.75
2022-12-16T23:14:00.448Z,106.28
2022-12-16T23:16:45.989Z,100.90
2022-12-16T23:19:31.459Z,100.93
2022-12-16T23:22:16.787Z,101.45
2022-12-16T23:25:02.304Z,107.22
2022-12-16T23:27:47.630Z,100.30
2022-12-16T23:30:33.060Z,104.60
2022-12-16T23:33:19.465Z,101.95
2022-12-16T23:36:04.824Z,99.93
2022-12-16T23:38:50.338Z,99.28
2022-12-16T23:41:35.690Z,102.68
2022-12-16T23:44:21.114Z,101.50
2022-12-16T23:47:06.542Z,99.75
2022-12-16T23:49:51.765Z,97.93
2022-12-16T23:52:37.288Z,101.68
2022-12-16T23:55:22.686Z,102.53
2022-12-16T23:58:19.930Z,99.97
